Time;durP1;ratioP1;P1;durP2;ratioP2;P2;SDS_P1;SDS_P2;PMS_P1;PMS_P2;Temp;Humidity;BMP_temperature;BMP_pressure;BME280_temperature;BME280_humidity;BME280_pressure;Samples;Min_cycle;Max_cycle;Signal;HPM_P1;HPM_P2
2021/08/12 00:00:16;;;;;;;17.57;6.13;;;;;;;17.19;57.89;99346.34;125658;1093;103038;-74
2021/08/12 00:03:05;;;;;;;17.47;6.53;;;;;;;17.14;57.84;99348.63;125671;1093;102913;-74
2021/08/12 00:05:34;;;;;;;17.17;5.83;;;;;;;17.10;58.03;99352.59;125699;1093;103433;-74
2021/08/12 00:08:02;;;;;;;14.50;5.60;;;;;;;17.06;58.01;99359.26;125760;1092;103070;-74
2021/08/12 00:10:31;;;;;;;12.77;5.87;;;;;;;17.02;58.06;99361.41;125777;1093;102913;-74
2021/08/12 00:12:59;;;;;;;16.97;5.90;;;;;;;17.01;58.04;99364.22;125761;1093;103128;-74
2021/08/12 00:15:27;;;;;;;14.23;6.13;;;;;;;17.00;57.89;99363.39;125728;1092;103009;-74
2021/08/12 00:17:56;;;;;;;15.27;5.80;;;;;;;16.99;57.95;99366.20;125672;1093;103007;-74
2021/08/12 00:20:24;;;;;;;15.73;6.30;;;;;;;16.95;58.05;99363.77;125648;1093;103032;-74
2021/08/12 00:22:53;;;;;;;19.37;6.80;;;;;;;16.92;58.11;99364.06;125669;1093;103386;-74
2021/08/12 00:25:22;;;;;;;16.73;6.10;;;;;;;16.87;58.07;99362.81;125662;1093;102916;-74
2021/08/12 00:27:50;;;;;;;13.10;6.13;;;;;;;16.84;58.43;99363.97;125692;1093;102916;-75
2021/08/12 00:30:18;;;;;;;13.87;5.73;;;;;;;16.83;58.47;99367.64;125674;1093;103411;-74
2021/08/12 00:32:47;;;;;;;15.70;6.37;;;;;;;16.82;58.41;99365.95;125647;1093;103054;-74
2021/08/12 00:35:16;;;;;;;16.60;5.87;;;;;;;16.81;58.50;99369.63;125661;1093;103024;-75
2021/08/12 00:37:44;;;;;;;16.43;6.10;;;;;;;16.77;58.76;99363.67;125725;1093;103068;-75
2021/08/12 00:40:16;;;;;;;15.67;6.17;;;;;;;16.78;58.54;99375.28;125728;1093;103054;-77
2021/08/12 00:42:44;;;;;;;19.40;6.97;;;;;;;16.77;58.86;99369.05;125705;1096;102989;-76
2021/08/12 00:45:13;;;;;;;15.40;6.07;;;;;;;16.79;58.67;99374.30;125680;1096;102975;-75
2021/08/12 00:47:42;;;;;;;14.87;5.60;;;;;;;16.80;58.99;99375.98;125666;1093;103161;-75
2021/08/12 00:50:11;;;;;;;14.90;5.73;;;;;;;16.75;59.06;99376.41;125663;1092;103009;-75
2021/08/12 00:52:40;;;;;;;13.35;5.45;;;;;;;16.73;59.09;99378.38;125658;1093;103552;-75
2021/08/12 00:55:10;;;;;;;15.50;6.00;;;;;;;16.73;58.98;99380.23;125721;1093;103119;-73
2021/08/12 00:57:39;;;;;;;15.47;5.90;;;;;;;16.73;59.19;99388.30;125669;1093;103515;-74
2021/08/12 01:00:08;;;;;;;15.67;6.10;;;;;;;16.73;59.06;99372.18;125697;1093;102938;-74
2021/08/12 01:02:39;;;;;;;14.50;5.67;;;;;;;16.70;59.03;99384.08;125654;1091;102994;-75
2021/08/12 01:05:09;;;;;;;15.70;6.43;;;;;;;16.70;59.07;99385.89;125743;1092;102919;-75
2021/08/12 01:08:13;;;;;;;14.50;5.87;;;;;;;16.69;59.15;99387.75;125661;1093;102913;-75
2021/08/12 01:11:09;;;;;;;15.13;5.65;;;;;;;16.66;59.43;99386.17;125640;1093;103010;-74
2021/08/12 01:14:36;;;;;;;14.03;5.80;;;;;;;16.64;59.40;99381.95;125711;1093;103341;-74
2021/08/12 01:17:08;;;;;;;16.07;6.10;;;;;;;16.62;59.28;99381.25;125476;1096;103189;-74
2021/08/12 01:20:07;;;;;;;14.50;5.93;;;;;;;16.62;59.58;99386.63;125697;1093;103039;-75
2021/08/12 01:22:45;;;;;;;15.53;6.27;;;;;;;16.61;59.46;99384.92;125672;1093;103010;-75
2021/08/12 01:25:24;;;;;;;15.20;5.73;;;;;;;16.57;59.53;99383.52;125661;1094;102996;-75
2021/08/12 01:27:54;;;;;;;16.57;6.90;;;;;;;16.55;59.62;99391.69;125709;1093;102995;-75
2021/08/12 01:30:31;;;;;;;15.87;6.57;;;;;;;16.53;59.54;99388.30;125767;1093;102988;-75
2021/08/12 01:33:08;;;;;;;15.25;6.80;;;;;;;16.51;59.76;99395.65;125757;1093;102907;-77
2021/08/12 01:35:38;;;;;;;15.57;6.60;;;;;;;16.45;59.65;99394.39;125746;1093;103183;-74
2021/08/12 01:38:21;;;;;;;17.67;7.00;;;;;;;16.45;59.75;99390.88;125656;1093;102983;-76
2021/08/12 01:40:53;;;;;;;14.75;6.75;;;;;;;16.44;59.89;99384.64;125689;1092;103012;-75
2021/08/12 01:43:22;;;;;;;12.63;6.13;;;;;;;16.43;59.80;99390.16;125683;1093;103002;-74
2021/08/12 01:45:54;;;;;;;18.30;7.40;;;;;;;16.42;59.77;99389.30;125688;1093;102911;-75
2021/08/12 01:48:25;;;;;;;18.63;7.63;;;;;;;16.42;59.98;99386.62;125687;1093;102998;-72
2021/08/12 01:50:55;;;;;;;17.27;7.67;;;;;;;16.39;60.21;99392.27;125638;1096;103015;-74
2021/08/12 01:53:26;;;;;;;16.00;6.80;;;;;;;16.34;60.08;99390.02;125684;1096;103212;-74
2021/08/12 01:55:58;;;;;;;17.50;7.63;;;;;;;16.31;60.05;99384.93;125698;1096;103045;-74
2021/08/12 01:58:29;;;;;;;15.47;6.63;;;;;;;16.29;60.18;99378.02;125713;1093;102913;-74
2021/08/12 02:01:00;;;;;;;15.83;7.00;;;;;;;16.27;60.36;99378.14;125707;1093;103024;-75
2021/08/12 02:03:30;;;;;;;15.83;6.93;;;;;;;16.27;60.14;99380.00;125724;1093;103036;-75
2021/08/12 02:06:00;;;;;;;17.03;7.10;;;;;;;16.24;60.35;99381.11;125689;1093;102916;-75
2021/08/12 02:08:30;;;;;;;19.30;7.10;;;;;;;16.22;60.39;99389.31;125654;1093;103006;-74
2021/08/12 02:10:58;;;;;;;15.10;6.63;;;;;;;16.21;60.40;99390.30;125692;1093;102945;-75
2021/08/12 02:13:28;;;;;;;17.20;6.93;;;;;;;16.21;60.53;99392.98;125675;1093;103342;-76
2021/08/12 02:15:57;;;;;;;16.27;6.93;;;;;;;16.21;60.65;99392.98;125650;1093;102945;-76
2021/08/12 02:18:26;;;;;;;21.13;6.87;;;;;;;16.23;60.64;99395.52;125714;1096;102955;-74
2021/08/12 02:21:13;;;;;;;17.30;7.17;;;;;;;16.19;60.67;99400.33;125692;1095;103028;-74
2021/08/12 02:23:59;;;;;;;15.10;7.13;;;;;;;16.19;60.67;99397.64;125681;1096;103071;-74
2021/08/12 02:26:38;;;;;;;14.80;6.63;;;;;;;16.19;60.81;99407.52;125653;1095;102911;-75
2021/08/12 02:29:09;;;;;;;16.73;6.53;;;;;;;16.17;60.67;99404.98;125660;1093;103039;-75
2021/08/12 02:31:41;;;;;;;18.33;7.30;;;;;;;16.16;60.88;99410.47;125678;1093;103029;-76
2021/08/12 02:34:11;;;;;;;18.33;6.97;;;;;;;16.16;60.97;99410.47;125642;1093;103019;-75
2021/08/12 02:36:42;;;;;;;15.37;6.50;;;;;;;16.17;60.80;99412.17;125694;1093;102937;-76
2021/08/12 02:39:13;;;;;;;15.73;6.13;;;;;;;16.17;60.96;99414.86;125673;1093;103149;-77
2021/08/12 02:41:42;;;;;;;16.93;7.00;;;;;;;16.15;61.08;99416.83;125655;1096;102997;-78
2021/08/12 02:44:11;;;;;;;18.63;7.00;;;;;;;16.16;60.97;99419.39;125724;1093;103038;-78
2021/08/12 02:46:41;;;;;;;16.70;7.03;;;;;;;16.15;61.15;99423.06;125700;1093;102916;-76
2021/08/12 02:49:11;;;;;;;16.40;7.07;;;;;;;16.12;61.08;99414.42;125764;1093;102971;-76
2021/08/12 02:51:41;;;;;;;18.47;7.20;;;;;;;16.09;61.15;99420.92;126590;1092;103023;-74
2021/08/12 02:54:09;;;;;;;15.07;6.37;;;;;;;16.07;61.28;99414.84;125923;1095;103012;-74
2021/08/12 02:56:40;;;;;;;17.33;6.83;;;;;;;16.04;61.25;99415.98;125727;1093;102913;-76
2021/08/12 02:59:09;;;;;;;17.33;6.90;;;;;;;16.05;61.40;99419.50;125658;1093;103061;-74
2021/08/12 03:01:40;;;;;;;16.03;6.70;;;;;;;16.04;61.30;99418.67;125693;1094;103537;-81
2021/08/12 03:04:08;;;;;;;17.60;7.20;;;;;;;15.95;61.13;99419.49;125692;1093;103062;-76
2021/08/12 03:06:40;;;;;;;17.65;7.25;;;;;;;15.77;61.03;99421.95;125644;1093;103027;-75
2021/08/12 03:09:09;;;;;;;17.53;7.00;;;;;;;15.65;61.22;99423.90;125725;1092;102985;-74
2021/08/12 03:11:39;;;;;;;16.30;6.63;;;;;;;15.54;61.17;99406.05;125675;1093;102914;-73
2021/08/12 03:14:08;;;;;;;18.27;7.50;;;;;;;15.38;61.24;99411.92;125703;1093;103121;-76
2021/08/12 03:16:38;;;;;;;16.33;6.53;;;;;;;15.31;61.51;99424.16;125640;1093;103033;-75
2021/08/12 03:19:07;;;;;;;17.20;7.17;;;;;;;15.35;61.55;99424.75;125647;1093;103068;-78
2021/08/12 03:21:35;;;;;;;17.83;7.30;;;;;;;15.40;61.70;99427.88;125702;1093;102919;-76
2021/08/12 03:24:05;;;;;;;18.33;6.67;;;;;;;15.41;61.81;99430.41;125664;1093;102994;-80
2021/08/12 03:26:33;;;;;;;15.10;6.73;;;;;;;15.43;61.79;99425.77;125715;1096;102918;-78
2021/08/12 03:29:02;;;;;;;14.50;6.43;;;;;;;15.43;61.73;99433.81;125679;1096;103089;-81
2021/08/12 03:31:30;;;;;;;18.10;6.70;;;;;;;15.32;61.75;99436.57;125638;1096;103203;-79
2021/08/12 03:33:58;;;;;;;20.77;7.70;;;;;;;15.23;61.74;99432.87;125650;1096;102958;-78
2021/08/12 03:36:27;;;;;;;17.20;7.53;;;;;;;15.22;61.69;99438.38;125634;1096;103062;-80
2021/08/12 03:38:55;;;;;;;18.63;7.73;;;;;;;15.18;61.79;99437.77;125747;1096;102916;-79
2021/08/12 03:41:24;;;;;;;16.87;7.07;;;;;;;15.03;61.80;99435.45;125730;1096;103042;-75
2021/08/12 03:43:53;;;;;;;17.37;7.33;;;;;;;15.02;62.13;99439.11;125673;1096;103249;-78
2021/08/12 03:46:21;;;;;;;19.67;8.10;;;;;;;15.06;62.24;99438.84;125666;1095;102938;-81
2021/08/12 03:48:49;;;;;;;15.97;7.57;;;;;;;15.07;62.21;99438.70;125723;1096;103012;-80
2021/08/12 03:51:19;;;;;;;15.23;7.03;;;;;;;15.04;62.17;99436.28;125698;1096;103501;-78
2021/08/12 03:53:47;;;;;;;17.67;8.03;;;;;;;15.00;62.17;99435.71;125684;1097;103155;-80
2021/08/12 03:56:16;;;;;;;15.93;7.37;;;;;;;15.04;62.44;99444.32;125560;1095;103086;-79
2021/08/12 03:58:44;;;;;;;16.10;6.97;;;;;;;15.08;62.43;99443.08;125689;1096;102939;-79
2021/08/12 04:01:12;;;;;;;18.40;7.70;;;;;;;15.11;62.53;99441.95;125684;1095;102939;-77
2021/08/12 04:03:41;;;;;;;17.47;7.83;;;;;;;15.13;62.52;99442.67;125677;1095;102942;-79
2021/08/12 04:06:09;;;;;;;17.57;7.63;;;;;;;15.13;62.50;99448.03;125660;1095;103003;-78
2021/08/12 04:08:38;;;;;;;19.83;7.37;;;;;;;15.02;62.05;99451.63;125679;1095;103064;-77
2021/08/12 04:11:06;;;;;;;17.53;7.30;;;;;;;14.83;62.28;99465.74;125699;1096;102941;-77
2021/08/12 04:13:35;;;;;;;17.33;7.20;;;;;;;14.70;62.31;99473.96;125701;1096;103016;-78
2021/08/12 04:16:04;;;;;;;17.13;7.57;;;;;;;14.60;62.66;99476.53;125700;1096;102920;-77
2021/08/12 04:18:33;;;;;;;19.10;8.17;;;;;;;14.39;62.03;99479.16;125712;1096;103105;-77
2021/08/12 04:21:01;;;;;;;22.43;8.63;;;;;;;14.22;62.70;99481.38;125629;1097;103006;-77
2021/08/12 04:23:30;;;;;;;16.07;7.83;;;;;;;14.15;62.47;99477.49;125701;1096;103019;-77
2021/08/12 04:25:58;;;;;;;19.67;8.93;;;;;;;14.08;62.82;99479.83;125682;1095;103015;-78
2021/08/12 04:28:48;;;;;;;17.03;8.27;;;;;;;14.01;62.78;99470.59;125731;1096;102922;-78
2021/08/12 04:31:16;;;;;;;20.77;9.13;;;;;;;14.04;62.94;99482.89;125711;1096;103466;-78
2021/08/12 04:33:45;;;;;;;19.63;9.33;;;;;;;14.04;63.35;99482.89;125659;1096;102913;-80
2021/08/12 04:36:14;;;;;;;19.63;8.53;;;;;;;14.11;63.12;99481.39;125680;1096;103015;-80
2021/08/12 04:38:42;;;;;;;20.00;8.63;;;;;;;14.17;63.21;99490.77;125695;1096;102916;-78
2021/08/12 04:41:11;;;;;;;18.50;8.00;;;;;;;14.20;63.45;99482.48;125714;1096;102994;-78
2021/08/12 04:43:39;;;;;;;22.53;9.93;;;;;;;14.25;63.50;99482.97;125717;1097;103170;-78
2021/08/12 04:46:08;;;;;;;16.87;7.73;;;;;;;14.33;63.63;99480.48;125702;1096;102998;-78
2021/08/12 04:48:37;;;;;;;19.30;8.90;;;;;;;14.44;63.96;99484.98;125709;1095;102994;-79
2021/08/12 04:51:05;;;;;;;18.57;8.50;;;;;;;14.53;64.13;99478.84;125692;1096;103010;-78
2021/08/12 04:53:33;;;;;;;19.10;7.83;;;;;;;14.63;64.09;99489.66;125723;1096;102998;-78
2021/08/12 04:56:02;;;;;;;19.97;8.30;;;;;;;14.72;63.96;99482.72;125686;1096;103035;-78
2021/08/12 04:58:31;;;;;;;19.40;8.20;;;;;;;14.82;64.22;99491.69;125702;1096;103642;-78
2021/08/12 05:00:59;;;;;;;17.33;7.50;;;;;;;14.92;64.09;99483.72;125674;1097;103065;-79
2021/08/12 05:03:30;;;;;;;15.73;7.10;;;;;;;15.01;64.24;99485.63;125655;1096;103052;-80
2021/08/12 05:06:03;;;;;;;20.23;8.00;;;;;;;15.09;64.46;99487.64;125688;1097;102916;-78
2021/08/12 05:08:32;;;;;;;;;;;;;;;15.18;64.68;99486.00;125737;1096;102935;-77
2021/08/12 05:11:00;;;;;;;18.80;7.90;;;;;;;15.25;64.37;99479.14;125679;1095;103057;-77
2021/08/12 05:13:28;;;;;;;18.50;8.10;;;;;;;15.33;64.48;99487.38;125677;1095;103374;-77
2021/08/12 05:15:57;;;;;;;17.87;7.63;;;;;;;15.40;64.39;99489.53;125664;1096;103015;-77
2021/08/12 05:18:25;;;;;;;19.73;7.57;;;;;;;15.48;64.49;99495.09;125688;1096;103035;-77
2021/08/12 05:20:54;;;;;;;15.93;7.37;;;;;;;15.55;64.57;99501.59;125668;1096;102917;-78
2021/08/12 05:23:22;;;;;;;18.77;8.00;;;;;;;15.64;64.56;99497.28;125664;1096;103012;-78
2021/08/12 05:25:50;;;;;;;16.57;6.80;;;;;;;15.71;64.62;99500.27;125682;1096;102911;-78
2021/08/12 05:28:19;;;;;;;18.50;7.60;;;;;;;15.78;64.65;99498.75;125685;1096;102942;-79
2021/08/12 05:30:47;;;;;;;17.60;7.13;;;;;;;15.88;64.84;99501.49;125745;1096;102916;-78
2021/08/12 05:33:15;;;;;;;20.33;7.77;;;;;;;15.95;64.76;99513.39;125729;1096;103021;-80
2021/08/12 05:35:44;;;;;;;19.20;7.83;;;;;;;16.02;64.59;99511.00;125671;1095;103367;-79
2021/08/12 05:38:14;;;;;;;18.65;7.80;;;;;;;16.09;64.67;99511.33;125686;1096;103083;-80
2021/08/12 05:40:44;;;;;;;18.00;7.47;;;;;;;16.15;64.76;99519.67;125637;1096;103012;-79
2021/08/12 05:43:12;;;;;;;18.43;8.40;;;;;;;16.22;64.81;99515.45;125689;1096;103012;-77
2021/08/12 05:45:40;;;;;;;17.57;7.10;;;;;;;16.29;64.83;99521.11;125664;1096;103001;-77
2021/08/12 05:48:08;;;;;;;16.20;6.90;;;;;;;16.36;64.92;99527.63;125642;1095;103090;-77
2021/08/12 05:50:43;;;;;;;15.20;6.93;;;;;;;16.43;64.78;99532.45;125699;1096;102916;-77
2021/08/12 05:53:16;;;;;;;18.03;8.00;;;;;;;16.50;65.02;99539.81;125692;1095;102938;-78
2021/08/12 05:55:44;;;;;;;16.30;7.10;;;;;;;16.57;64.88;99539.27;125700;1096;103035;-78
2021/08/12 05:58:13;;;;;;;16.87;7.40;;;;;;;16.64;65.04;99543.09;125714;1096;103107;-76
2021/08/12 06:00:42;;;;;;;14.07;7.13;;;;;;;16.71;64.79;99536.15;125648;1096;103005;-75
2021/08/12 06:03:13;;;;;;;16.27;7.37;;;;;;;16.78;64.77;99536.45;125698;1096;102922;-77
2021/08/12 06:05:43;;;;;;;13.93;6.10;;;;;;;16.87;64.87;99540.99;125694;1096;102922;-77
2021/08/12 06:08:11;;;;;;;15.13;6.20;;;;;;;16.94;64.92;99543.95;125723;1096;102916;-79
2021/08/12 06:10:41;;;;;;;17.00;6.50;;;;;;;17.00;65.09;99537.19;125676;1096;103065;-78
2021/08/12 06:13:10;;;;;;;16.50;6.50;;;;;;;17.06;64.86;99536.63;125642;1096;102994;-77
2021/08/12 06:15:38;;;;;;;14.07;6.40;;;;;;;17.12;65.14;99533.38;125689;1096;103015;-78
2021/08/12 06:18:13;;;;;;;17.23;6.10;;;;;;;17.21;65.19;99537.03;125633;1095;103061;-78
2021/08/12 06:20:44;;;;;;;15.87;7.00;;;;;;;17.28;64.80;99540.85;125700;1096;102918;-78
2021/08/12 06:23:12;;;;;;;15.37;6.30;;;;;;;17.34;64.69;99540.28;125690;1095;102993;-78
2021/08/12 06:25:41;;;;;;;14.47;6.07;;;;;;;17.41;64.91;99537.85;125688;1096;103009;-76
2021/08/12 06:28:10;;;;;;;17.63;7.47;;;;;;;17.49;65.16;99537.98;125699;1096;103013;-77
2021/08/12 06:30:38;;;;;;;15.20;6.43;;;;;;;17.55;65.26;99541.92;125665;1096;103001;-77
2021/08/12 06:33:07;;;;;;;17.87;6.43;;;;;;;17.62;64.94;99540.35;125659;1093;103044;-76
2021/08/12 06:35:36;;;;;;;15.27;6.43;;;;;;;17.69;64.76;99546.02;125673;1093;103136;-77
2021/08/12 06:38:07;;;;;;;14.53;6.03;;;;;;;17.74;64.64;99527.57;125612;1093;103048;-79
2021/08/12 06:40:35;;;;;;;15.53;6.23;;;;;;;17.80;64.59;99535.06;125699;1093;102929;-77
2021/08/12 06:43:04;;;;;;;13.10;6.40;;;;;;;17.89;64.79;99538.73;125669;1093;103087;-78
2021/08/12 06:45:32;;;;;;;14.87;6.90;;;;;;;17.97;64.96;99535.29;125684;1093;102994;-79
2021/08/12 06:48:04;;;;;;;13.37;6.03;;;;;;;18.04;64.66;99539.13;125659;1093;103518;-79
2021/08/12 06:50:32;;;;;;;12.20;5.83;;;;;;;18.13;65.15;99538.23;126463;1093;103031;-79
2021/08/12 06:53:01;;;;;;;14.33;6.13;;;;;;;18.22;65.05;99536.48;125659;1093;102991;-77
2021/08/12 06:55:30;;;;;;;15.10;6.13;;;;;;;18.30;65.18;99536.59;125664;1092;102934;-77
2021/08/12 06:58:02;;;;;;;17.23;6.50;;;;;;;18.38;65.18;99538.52;125680;1093;102933;-76
2021/08/12 07:00:30;;;;;;;15.90;6.47;;;;;;;18.48;65.07;99533.06;125694;1094;103127;-77
2021/08/12 07:02:59;;;;;;;15.03;6.27;;;;;;;18.57;64.94;99537.55;125670;1093;103007;-79
2021/08/12 07:05:28;;;;;;;20.40;7.37;;;;;;;18.65;64.59;99539.47;125616;1093;102916;-77
2021/08/12 07:07:56;;;;;;;16.30;7.40;;;;;;;18.74;65.01;99541.26;125627;1093;102916;-76
2021/08/12 07:10:24;;;;;;;17.10;8.00;;;;;;;18.83;64.95;99539.48;125671;1093;102885;-77
2021/08/12 07:12:53;;;;;;;16.17;7.40;;;;;;;19.04;64.30;99546.45;125675;1093;103004;-77
2021/08/12 07:15:21;;;;;;;14.97;6.50;;;;;;;20.84;62.99;99543.22;125621;1093;103598;-76
2021/08/12 07:17:49;;;;;;;13.13;5.77;;;;;;;22.83;62.33;99540.86;125692;1093;103041;-78
2021/08/12 07:20:18;;;;;;;10.13;4.80;;;;;;;24.67;62.57;99540.50;125665;1092;102913;-76
2021/08/12 07:22:47;;;;;;;11.43;5.23;;;;;;;26.52;62.43;99540.66;125656;1093;103081;-76
2021/08/12 07:25:16;;;;;;;15.10;5.03;;;;;;;28.05;62.34;99540.94;125683;1093;103001;-77
2021/08/12 07:27:48;;;;;;;11.40;5.67;;;;;;;29.46;62.01;99542.11;125611;1093;103195;-76
2021/08/12 07:30:18;;;;;;;12.13;5.17;;;;;;;30.87;61.38;99549.56;125659;1093;102939;-77
2021/08/12 07:32:46;;;;;;;14.57;5.37;;;;;;;31.96;60.96;99538.50;125621;1093;103014;-76
2021/08/12 07:35:18;;;;;;;13.83;5.97;;;;;;;32.88;60.61;99543.38;125676;1093;102995;-78
2021/08/12 07:37:46;;;;;;;13.50;5.60;;;;;;;33.77;59.78;99544.55;125650;1093;103111;-77
2021/08/12 07:40:15;;;;;;;11.63;5.20;;;;;;;34.74;59.45;99551.59;125653;1093;103029;-77
2021/08/12 07:42:44;;;;;;;10.87;4.77;;;;;;;35.14;59.09;99552.28;125683;1093;103014;-77
2021/08/12 07:45:12;;;;;;;9.93;4.87;;;;;;;35.91;59.47;99540.93;125679;1093;103161;-76
2021/08/12 07:47:42;;;;;;;9.77;4.80;;;;;;;36.56;58.18;99550.94;125696;1093;103512;-77
2021/08/12 07:50:11;;;;;;;9.17;4.60;;;;;;;36.94;57.07;99557.10;125696;1093;102922;-75
2021/08/12 07:52:42;;;;;;;8.93;4.93;;;;;;;37.13;56.66;99562.16;125661;1093;103483;-75
2021/08/12 07:55:11;;;;;;;8.47;4.77;;;;;;;37.28;55.38;99556.62;125716;1093;103132;-75
2021/08/12 07:57:39;;;;;;;11.07;4.90;;;;;;;37.35;55.29;99559.92;125668;1093;102941;-76
2021/08/12 08:00:08;;;;;;;9.23;5.10;;;;;;;37.56;54.16;99557.17;125672;1094;102903;-76
2021/08/12 08:02:42;;;;;;;8.67;4.57;;;;;;;37.70;54.11;99559.38;125656;1093;102997;-74
2021/08/12 08:05:14;;;;;;;10.20;4.60;;;;;;;36.70;54.64;99556.78;125624;1097;103061;-76
2021/08/12 08:07:44;;;;;;;10.35;4.40;;;;;;;36.15;53.82;99557.15;125685;1092;103057;-76
2021/08/12 08:10:14;;;;;;;10.13;3.90;;;;;;;36.04;52.50;99565.40;125686;1093;103151;-75
2021/08/12 08:12:43;;;;;;;8.87;4.00;;;;;;;36.68;52.13;99551.53;125719;1093;103036;-75
2021/08/12 08:15:14;;;;;;;5.23;3.70;;;;;;;36.67;51.03;99562.91;125727;1093;103001;-76
2021/08/12 08:18:02;;;;;;;8.83;4.00;;;;;;;35.92;50.78;99564.73;125669;1093;102997;-75
2021/08/12 08:20:31;;;;;;;9.80;4.93;;;;;;;36.03;49.68;99560.96;125696;1093;103348;-76
2021/08/12 08:23:05;;;;;;;8.90;4.20;;;;;;;36.49;49.50;99560.33;125676;1093;103061;-75
2021/08/12 08:25:34;;;;;;;12.17;4.50;;;;;;;36.92;48.86;99562.94;125694;1092;102913;-76
2021/08/12 08:28:05;;;;;;;8.97;4.00;;;;;;;36.95;48.17;99564.31;125657;1093;103035;-74
2021/08/12 08:30:35;;;;;;;9.33;3.90;;;;;;;36.51;47.47;99554.53;125633;1092;103063;-75
2021/08/12 08:33:05;;;;;;;9.45;4.10;;;;;;;36.81;47.80;99558.48;125659;1096;102905;-74
2021/08/12 08:35:34;;;;;;;11.90;3.80;;;;;;;37.39;46.99;99560.21;125683;1093;102936;-75
2021/08/12 08:38:04;;;;;;;6.80;3.53;;;;;;;37.88;47.23;99558.76;125696;1093;102997;-76
2021/08/12 08:40:34;;;;;;;5.50;3.30;;;;;;;38.37;46.48;99559.16;125670;1093;103185;-74
2021/08/12 08:43:03;;;;;;;10.77;4.17;;;;;;;38.48;45.89;99565.52;125668;1093;103063;-75
2021/08/12 08:45:31;;;;;;;6.55;3.50;;;;;;;38.04;45.08;99562.34;125662;1093;102913;-75
2021/08/12 08:48:03;;;;;;;12.70;3.90;;;;;;;37.46;44.52;99562.72;125662;1093;103033;-76
2021/08/12 08:50:32;;;;;;;10.15;3.85;;;;;;;36.87;43.68;99562.11;125674;1093;102916;-75
2021/08/12 08:53:01;;;;;;;8.47;4.00;;;;;;;36.21;42.67;99561.61;125693;1096;102941;-73
2021/08/12 08:55:30;;;;;;;6.67;3.63;;;;;;;36.02;42.91;99562.06;125643;1093;103051;-74
2021/08/12 08:57:59;;;;;;;8.30;3.47;;;;;;;36.08;43.13;99571.22;125688;1093;103023;-74
2021/08/12 09:00:28;;;;;;;7.80;3.77;;;;;;;36.35;42.09;99571.06;125699;1093;102994;-72
2021/08/12 09:02:57;;;;;;;12.57;4.33;;;;;;;36.54;42.13;99570.61;125695;1092;102909;-74
2021/08/12 09:05:26;;;;;;;8.67;3.50;;;;;;;36.74;41.77;99571.76;125738;1093;103028;-79
2021/08/12 09:07:55;;;;;;;5.70;3.70;;;;;;;36.97;41.84;99577.94;125720;1093;102915;-77
2021/08/12 09:10:25;;;;;;;10.17;3.87;;;;;;;37.36;41.25;99574.63;125736;1092;103012;-76
2021/08/12 09:12:53;;;;;;;10.03;4.07;;;;;;;37.46;41.42;99577.44;125705;1092;103016;-75
2021/08/12 09:15:23;;;;;;;10.73;3.80;;;;;;;37.56;40.20;99584.06;125729;1091;102903;-75
2021/08/12 09:17:57;;;;;;;9.58;4.05;;;;;;;36.44;39.57;99589.93;125676;1093;102922;-76
2021/08/12 09:20:26;;;;;;;10.20;3.70;;;;;;;36.19;39.34;99584.02;125665;1093;103097;-74
2021/08/12 09:23:07;;;;;;;6.00;3.27;;;;;;;36.26;39.30;99585.70;125719;1093;103076;-75
2021/08/12 09:25:44;;;;;;;7.65;4.00;;;;;;;36.63;39.47;99584.77;125675;1092;102910;-75
2021/08/12 09:28:20;;;;;;;7.10;3.30;;;;;;;36.39;38.82;99590.75;125744;1093;102941;-73
2021/08/12 09:30:58;;;;;;;9.83;3.70;;;;;;;35.43;38.50;99601.73;125698;1093;103007;-73
2021/08/12 09:33:33;;;;;;;9.70;3.93;;;;;;;34.64;38.30;99599.27;125663;1093;103087;-75
2021/08/12 09:36:03;;;;;;;7.83;3.80;;;;;;;34.01;38.04;99594.05;125700;1093;102935;-75
2021/08/12 09:38:35;;;;;;;7.00;3.40;;;;;;;34.24;37.67;99595.70;125665;1093;103031;-74
2021/08/12 09:41:40;;;;;;;4.97;3.23;;;;;;;34.37;37.94;99588.14;125691;1092;103001;-75
2021/08/12 09:44:30;;;;;;;9.40;3.60;;;;;;;33.79;37.47;99589.27;125707;1093;103236;-75
2021/08/12 09:47:02;;;;;;;10.23;3.63;;;;;;;33.16;37.52;99592.09;125669;1096;103010;-74
2021/08/12 09:49:39;;;;;;;9.83;3.83;;;;;;;32.28;37.04;99597.75;125717;1093;103093;-75
2021/08/12 09:52:25;;;;;;;8.43;3.67;;;;;;;31.45;36.67;99604.92;125668;1092;103087;-75
2021/08/12 09:54:59;;;;;;;11.63;3.97;;;;;;;30.63;36.54;99599.97;125664;1093;102917;-75
2021/08/12 09:57:42;;;;;;;10.43;3.90;;;;;;;29.96;35.99;99610.55;125709;1093;102916;-74
2021/08/12 10:00:26;;;;;;;7.80;3.83;;;;;;;29.45;36.62;99604.27;125628;1093;103074;-75
2021/08/12 10:02:55;;;;;;;7.67;3.57;;;;;;;29.29;35.90;99600.15;125693;1093;102920;-74
2021/08/12 10:05:24;;;;;;;7.15;4.00;;;;;;;29.13;35.84;99596.05;125647;1094;102988;-75
2021/08/12 10:07:55;;;;;;;12.43;4.10;;;;;;;29.15;36.05;99596.67;125695;1093;102912;-74
2021/08/12 10:10:29;;;;;;;9.20;3.57;;;;;;;29.11;35.96;99598.17;125699;1092;103084;-75
2021/08/12 10:13:00;;;;;;;7.43;3.57;;;;;;;29.00;36.55;99590.66;125676;1093;103240;-74
2021/08/12 10:15:35;;;;;;;8.70;3.50;;;;;;;29.01;36.47;99593.19;125694;1093;102975;-75
2021/08/12 10:18:04;;;;;;;9.37;3.70;;;;;;;28.91;36.10;99595.56;125684;1093;102916;-75
2021/08/12 10:20:36;;;;;;;9.70;3.77;;;;;;;28.57;35.56;99589.39;125685;1093;102908;-74
2021/08/12 10:23:05;;;;;;;;;;;;;;;28.23;36.03;99592.23;125706;1093;102945;-75
2021/08/12 10:25:35;;;;;;;10.70;3.87;;;;;;;28.00;35.50;99592.69;125664;1093;103064;-74
2021/08/12 10:28:06;;;;;;;7.00;3.70;;;;;;;27.68;35.33;99593.38;125695;1093;102939;-75
2021/08/12 10:30:36;;;;;;;9.93;3.97;;;;;;;27.44;35.34;99589.36;125639;1093;102933;-76
2021/08/12 10:33:07;;;;;;;6.57;3.57;;;;;;;27.29;35.50;99593.12;125699;1093;103020;-76
2021/08/12 10:35:38;;;;;;;6.47;3.60;;;;;;;27.26;35.90;99585.34;125708;1093;102985;-74
2021/08/12 10:38:06;;;;;;;8.73;3.63;;;;;;;27.23;35.42;99588.48;125675;1093;102918;-76
2021/08/12 10:40:38;;;;;;;17.67;4.37;;;;;;;26.99;35.58;99590.77;125689;1092;103495;-76
2021/08/12 10:43:11;;;;;;;7.50;3.63;;;;;;;26.77;35.75;99592.78;125673;1093;103031;-75
2021/08/12 10:45:39;;;;;;;;;;;;;;;26.55;35.88;99589.34;125726;1093;103000;-75
2021/08/12 10:48:19;;;;;;;8.10;3.77;;;;;;;26.39;35.64;99595.99;125703;1093;103012;-79
2021/08/12 10:51:12;;;;;;;8.23;4.00;;;;;;;26.42;35.90;99596.41;125631;1096;103162;-80
2021/08/12 10:54:15;;;;;;;7.40;3.87;;;;;;;26.39;35.92;99596.82;125700;1093;102963;-77
2021/08/12 10:56:50;;;;;;;9.00;3.93;;;;;;;26.38;35.96;99594.31;125683;1092;103032;-76
2021/08/12 10:59:51;;;;;;;7.03;4.00;;;;;;;26.33;35.93;99594.07;125623;1093;103172;-75
2021/08/12 11:02:28;;;;;;;12.93;4.50;;;;;;;26.12;35.84;99596.66;125666;1096;102913;-75
2021/08/12 11:05:05;;;;;;;6.43;4.00;;;;;;;26.01;36.02;99594.48;125631;1093;102942;-75
2021/08/12 11:07:41;;;;;;;9.43;4.30;;;;;;;25.82;35.97;99590.59;125667;1093;103342;-76
2021/08/12 11:10:19;;;;;;;8.77;3.87;;;;;;;25.68;36.19;99595.09;125694;1093;102916;-75
2021/08/12 11:13:04;;;;;;;6.13;3.80;;;;;;;25.69;36.45;99592.16;125709;1093;103023;-75
2021/08/12 11:15:42;;;;;;;9.80;4.00;;;;;;;25.69;36.40;99594.89;125704;1093;102965;-75
2021/08/12 11:18:14;;;;;;;6.97;4.03;;;;;;;25.83;36.77;99598.58;125661;1092;103074;-75
2021/08/12 11:20:45;;;;;;;9.07;3.77;;;;;;;25.95;36.55;99593.41;125711;1093;103028;-75
2021/08/12 11:23:19;;;;;;;9.70;4.50;;;;;;;26.07;36.82;99587.41;125652;1093;103017;-75
2021/08/12 11:26:01;;;;;;;8.03;4.10;;;;;;;26.18;37.02;99594.20;125684;1093;102935;-76
2021/08/12 11:28:38;;;;;;;8.13;3.83;;;;;;;26.28;37.14;99590.06;125662;1093;103665;-75
2021/08/12 11:31:30;;;;;;;10.53;4.10;;;;;;;26.37;37.04;99589.90;125634;1093;103014;-75